Time;durP1;ratioP1;P1;durP2;ratioP2;P2;SDS_P1;SDS_P2;PMS_P1;PMS_P2;Temp;Humidity;BMP_temperature;BMP_pressure;BME280_temperature;BME280_humidity;BME280_pressure;Samples;Min_cycle;Max_cycle;Signal;HPM_P1;HPM_P2
2023/01/24 00:00:46;;;;;;;21.27;14.75;;;;;;;;;;5052050;28;20041;-60
2023/01/24 00:03:12;;;;;;;20.98;14.43;;;;;;;;;;5052666;28;20041;-60
2023/01/24 00:05:42;;;;;;;21.92;15.07;;;;;;;;;;5052435;28;20084;-61
2023/01/24 00:08:08;;;;;;;21.58;15.82;;;;;;;;;;5052616;28;20033;-58
2023/01/24 00:10:34;;;;;;;20.63;15.07;;;;;;;;;;5052319;28;20044;-61
2023/01/24 00:13:00;;;;;;;21.50;15.20;;;;;;;;;;5052518;28;20331;-59
2023/01/24 00:15:26;;;;;;;21.92;15.23;;;;;;;;;;5051947;28;20182;-62
2023/01/24 00:17:52;;;;;;;21.95;15.00;;;;;;;;;;5052543;28;20116;-61
2023/01/24 00:20:18;;;;;;;22.75;15.05;;;;;;;;;;5052050;28;20048;-60
2023/01/24 00:22:44;;;;;;;21.85;15.18;;;;;;;;;;5051803;28;20045;-62
2023/01/24 00:25:10;;;;;;;20.25;15.10;;;;;;;;;;5052192;28;20458;-61
2023/01/24 00:27:36;;;;;;;22.08;15.60;;;;;;;;;;5052378;28;20044;-61
2023/01/24 00:30:04;;;;;;;22.02;15.30;;;;;;;;;;5051922;28;20449;-61
2023/01/24 00:32:30;;;;;;;21.63;15.55;;;;;;;;;;5052324;28;20037;-60
2023/01/24 00:34:56;;;;;;;22.20;15.43;;;;;;;;;;5051639;28;20056;-62
2023/01/24 00:37:22;;;;;;;21.52;15.07;;;;;;;;;;5052194;28;20040;-62
2023/01/24 00:39:48;;;;;;;21.50;15.25;;;;;;;;;;5051640;28;20357;-60
2023/01/24 00:42:14;;;;;;;22.38;15.68;;;;;;;;;;5052002;28;20037;-61
2023/01/24 00:44:41;;;;;;;22.83;15.80;;;;;;;;;;5051759;28;20082;-60
2023/01/24 00:47:07;;;;;;;20.55;14.75;;;;;;;;;;5052376;28;20037;-62
2023/01/24 00:49:33;;;;;;;20.70;15.13;;;;;;;;;;5051435;28;20457;-61
2023/01/24 00:51:59;;;;;;;22.13;14.82;;;;;;;;;;5050836;28;20043;-61
2023/01/24 00:54:25;;;;;;;20.27;14.57;;;;;;;;;;5051596;28;20090;-60
2023/01/24 00:56:51;;;;;;;23.10;15.45;;;;;;;;;;5051981;28;20041;-62
2023/01/24 00:59:17;;;;;;;22.00;15.70;;;;;;;;;;5051086;28;20037;-60
2023/01/24 01:01:43;;;;;;;25.13;14.73;;;;;;;;;;5048509;28;20484;-61
2023/01/24 01:04:09;;;;;;;22.48;15.15;;;;;;;;;;5048140;28;20045;-61
2023/01/24 01:06:35;;;;;;;24.88;15.25;;;;;;;;;;5050759;28;20040;-62
2023/01/24 01:09:01;;;;;;;22.70;14.75;;;;;;;;;;5050852;28;20132;-60
2023/01/24 01:11:27;;;;;;;21.23;14.82;;;;;;;;;;5050562;28;20037;-61
2023/01/24 01:13:56;;;;;;;22.38;15.95;;;;;;;;;;5051928;28;20052;-61
2023/01/24 01:16:23;;;;;;;21.95;15.18;;;;;;;;;;5051851;28;20078;-60
2023/01/24 01:18:51;;;;;;;23.15;15.82;;;;;;;;;;5048974;28;20045;-61
2023/01/24 01:21:18;;;;;;;21.85;14.98;;;;;;;;;;5049670;28;20033;-60
2023/01/24 01:23:44;;;;;;;22.27;15.80;;;;;;;;;;5051874;28;20094;-61
2023/01/24 01:26:15;;;;;;;21.75;15.15;;;;;;;;;;5050248;28;20048;-62
2023/01/24 01:28:41;;;;;;;23.48;15.48;;;;;;;;;;5050840;28;20044;-61
2023/01/24 01:31:07;;;;;;;22.17;15.07;;;;;;;;;;5048754;28;20041;-62
2023/01/24 01:33:33;;;;;;;21.20;15.05;;;;;;;;;;5052624;28;20523;-60
2023/01/24 01:35:59;;;;;;;22.58;15.05;;;;;;;;;;5037165;28;20053;-61
2023/01/24 01:38:27;;;;;;;24.02;16.33;;;;;;;;;;5055708;28;20041;-60
2023/01/24 01:40:53;;;;;;;23.48;15.85;;;;;;;;;;5052323;28;20041;-61
2023/01/24 01:43:21;;;;;;;22.42;15.35;;;;;;;;;;5054779;28;20040;-61
2023/01/24 01:45:48;;;;;;;20.85;14.85;;;;;;;;;;5054813;28;20041;-62
2023/01/24 01:48:17;;;;;;;20.05;14.48;;;;;;;;;;5055057;28;20044;-60
2023/01/24 01:50:59;;;;;;;19.40;13.45;;;;;;;;;;5053489;28;20033;-61
2023/01/24 01:53:28;;;;;;;21.23;14.93;;;;;;;;;;5054961;28;20128;-62
2023/01/24 01:55:58;;;;;;;21.23;14.52;;;;;;;;;;5054749;28;20447;-61
2023/01/24 01:58:24;;;;;;;20.33;14.90;;;;;;;;;;5055071;28;20051;-62
2023/01/24 02:00:50;;;;;;;19.95;14.45;;;;;;;;;;5052192;28;20040;-60
2023/01/24 02:06:03;;;;;;;20.50;14.50;;;;;;;;;;5054023;28;20102;-61
2023/01/24 02:08:30;;;;;;;21.83;14.80;;;;;;;;;;5054951;28;20033;-61
2023/01/24 02:11:43;;;;;;;20.48;13.55;;;;;;;;;;5053392;28;20045;-60
2023/01/24 02:13:44;;;;;;;17.85;12.95;;;;;;;;;;5043071;28;20401;-60
2023/01/24 02:16:11;;;;;;;17.63;12.60;;;;;;;;;;5053610;28;20443;-61
2023/01/24 02:18:38;;;;;;;17.38;12.52;;;;;;;;;;5053672;28;20068;-60
2023/01/24 02:21:07;;;;;;;17.70;11.88;;;;;;;;;;5052126;28;20477;-62
2023/01/24 02:23:43;;;;;;;18.00;12.95;;;;;;;;;;5054417;28;20333;-60
2023/01/24 02:26:14;;;;;;;18.98;12.60;;;;;;;;;;5053281;28;20040;-60
2023/01/24 02:28:43;;;;;;;21.77;12.50;;;;;;;;;;5054701;28;20453;-60
2023/01/24 02:31:09;;;;;;;18.25;12.00;;;;;;;;;;5053003;28;20041;-60
2023/01/24 02:33:35;;;;;;;17.17;11.80;;;;;;;;;;5053553;28;20059;-60
2023/01/24 02:36:13;;;;;;;17.95;12.77;;;;;;;;;;5052916;28;20048;-61
2023/01/24 02:38:40;;;;;;;15.48;10.73;;;;;;;;;;5053302;28;20090;-61
2023/01/24 02:41:07;;;;;;;15.68;11.20;;;;;;;;;;5051673;28;20503;-61
2023/01/24 02:43:43;;;;;;;14.88;11.00;;;;;;;;;;5053095;28;20055;-60
2023/01/24 02:46:09;;;;;;;15.95;10.50;;;;;;;;;;5052428;28;20479;-60
2023/01/24 02:48:34;;;;;;;14.80;10.73;;;;;;;;;;5054170;28;20036;-60
2023/01/24 02:53:45;;;;;;;14.88;10.52;;;;;;;;;;5052264;28;20045;-62
2023/01/24 02:58:56;;;;;;;15.57;11.07;;;;;;;;;;5053225;28;20044;-60
2023/01/24 03:01:22;;;;;;;16.60;11.63;;;;;;;;;;5052619;28;20045;-60
2023/01/24 03:03:48;;;;;;;18.35;11.70;;;;;;;;;;5053296;28;20095;-61
2023/01/24 03:06:15;;;;;;;15.85;11.07;;;;;;;;;;5035957;28;20375;-62
2023/01/24 03:08:41;;;;;;;17.38;11.18;;;;;;;;;;5053878;28;20041;-61
2023/01/24 03:11:07;;;;;;;15.27;11.15;;;;;;;;;;5052326;28;20060;-60
2023/01/24 03:35:32;;;;;;;;;;;;;;;;;;5049417;28;20052;-61
2023/01/24 03:40:45;;;;;;;17.98;12.75;;;;;;;;;;5067719;28;20127;-60
2023/01/24 03:43:11;;;;;;;20.27;13.43;;;;;;;;;;5052095;28;20033;-59
2023/01/24 03:45:38;;;;;;;20.63;13.75;;;;;;;;;;5052723;28;20095;-61
2023/01/24 03:48:15;;;;;;;19.27;14.05;;;;;;;;;;5052879;28;20487;-60
2023/01/24 03:53:28;;;;;;;19.15;13.65;;;;;;;;;;5052704;28;20056;-61
2023/01/24 03:55:55;;;;;;;18.48;14.27;;;;;;;;;;5051411;28;20044;-59
2023/01/24 03:58:22;;;;;;;20.08;13.73;;;;;;;;;;5052574;28;20198;-61
2023/01/24 04:00:48;;;;;;;19.75;13.98;;;;;;;;;;5050645;28;20043;-59
2023/01/24 04:03:14;;;;;;;21.30;14.88;;;;;;;;;;5052716;28;20029;-59
2023/01/24 04:05:40;;;;;;;20.05;14.35;;;;;;;;;;5052431;28;20136;-61
2023/01/24 04:08:07;;;;;;;21.00;14.02;;;;;;;;;;5052732;28;20379;-61
2023/01/24 04:10:33;;;;;;;21.48;14.23;;;;;;;;;;5052194;28;20041;-61
2023/01/24 04:12:59;;;;;;;21.20;14.43;;;;;;;;;;5051443;28;20103;-61
2023/01/24 04:15:27;;;;;;;22.88;15.75;;;;;;;;;;5052006;28;20060;-59
2023/01/24 04:17:57;;;;;;;21.00;14.50;;;;;;;;;;5052744;28;20045;-60
2023/01/24 04:20:23;;;;;;;20.15;13.82;;;;;;;;;;5052006;28;20444;-59
2023/01/24 04:22:49;;;;;;;19.98;13.57;;;;;;;;;;5048533;28;20062;-59
2023/01/24 04:25:15;;;;;;;19.88;13.18;;;;;;;;;;5050785;28;20445;-60
2023/01/24 04:27:41;;;;;;;16.92;11.98;;;;;;;;;;5052319;28;20050;-62
2023/01/24 04:30:08;;;;;;;17.83;12.10;;;;;;;;;;5050626;28;20045;-61
2023/01/24 04:32:34;;;;;;;16.75;11.80;;;;;;;;;;5034695;28;20106;-61
2023/01/24 04:35:04;;;;;;;20.25;12.70;;;;;;;;;;5050380;28;20525;-59
2023/01/24 04:37:32;;;;;;;17.77;12.15;;;;;;;;;;5049663;28;20041;-60
2023/01/24 04:40:00;;;;;;;18.10;12.27;;;;;;;;;;5051579;28;20041;-60
2023/01/24 04:42:26;;;;;;;20.92;13.32;;;;;;;;;;5052147;28;20142;-61
2023/01/24 04:44:52;;;;;;;17.23;11.27;;;;;;;;;;5051967;28;20356;-60
2023/01/24 04:47:18;;;;;;;16.48;11.73;;;;;;;;;;5052375;28;20037;-60
2023/01/24 04:49:44;;;;;;;16.83;11.68;;;;;;;;;;5051869;28;20428;-60
2023/01/24 04:52:13;;;;;;;17.02;11.35;;;;;;;;;;5049421;28;20037;-60
2023/01/24 04:54:39;;;;;;;17.70;11.38;;;;;;;;;;5051997;28;20116;-59
2023/01/24 04:57:06;;;;;;;15.90;11.25;;;;;;;;;;5052280;28;20033;-60
2023/01/24 04:59:32;;;;;;;17.40;11.45;;;;;;;;;;5050969;28;20037;-61
2023/01/24 05:01:58;;;;;;;15.90;10.85;;;;;;;;;;5051225;28;20037;-60
2023/01/24 05:04:24;;;;;;;16.73;11.23;;;;;;;;;;5050774;28;20084;-62
2023/01/24 05:06:50;;;;;;;16.70;10.88;;;;;;;;;;5052160;28;20368;-61
2023/01/24 05:09:16;;;;;;;15.68;10.85;;;;;;;;;;5055947;28;20128;-60
2023/01/24 05:11:42;;;;;;;17.35;11.30;;;;;;;;;;5055496;28;20047;-59
2023/01/24 05:14:11;;;;;;;18.02;11.70;;;;;;;;;;5054995;28;20114;-60
2023/01/24 05:16:37;;;;;;;15.50;10.68;;;;;;;;;;5055129;28;20045;-60
2023/01/24 05:19:04;;;;;;;16.60;10.95;;;;;;;;;;5055486;28;20033;-61
2023/01/24 05:21:30;;;;;;;17.05;11.02;;;;;;;;;;5052861;28;20475;-59
2023/01/24 05:23:56;;;;;;;14.93;10.18;;;;;;;;;;5055519;28;20037;-61
2023/01/24 05:26:23;;;;;;;18.27;10.70;;;;;;;;;;5055746;28;20102;-60
2023/01/24 05:28:49;;;;;;;17.55;10.77;;;;;;;;;;5051675;28;20116;-61
2023/01/24 05:31:15;;;;;;;14.90;10.70;;;;;;;;;;5054991;28;20044;-61
2023/01/24 05:33:41;;;;;;;15.73;10.40;;;;;;;;;;5054027;28;20103;-61
2023/01/24 05:36:13;;;;;;;17.45;11.02;;;;;;;;;;5052980;28;20052;-62
2023/01/24 05:38:39;;;;;;;16.50;11.05;;;;;;;;;;5055895;28;20064;-60
2023/01/24 05:41:07;;;;;;;17.00;11.73;;;;;;;;;;5055305;28;20389;-59
2023/01/24 05:43:33;;;;;;;16.00;11.15;;;;;;;;;;5055267;28;20033;-62
2023/01/24 05:46:25;;;;;;;16.70;10.52;;;;;;;;;;5053993;28;20043;-59
2023/01/24 05:48:51;;;;;;;15.32;9.65;;;;;;;;;;5047675;28;20125;-60
2023/01/24 05:51:19;;;;;;;14.05;8.55;;;;;;;;;;5055086;28;20069;-60
2023/01/24 05:53:45;;;;;;;13.93;9.18;;;;;;;;;;5053640;28;20041;-60
2023/01/24 05:56:13;;;;;;;12.65;9.50;;;;;;;;;;5054468;28;20037;-62
2023/01/24 05:58:39;;;;;;;13.85;9.10;;;;;;;;;;5055042;28;20032;-62
2023/01/24 06:01:16;;;;;;;13.85;9.85;;;;;;;;;;5053035;28;20051;-61
2023/01/24 06:03:42;;;;;;;15.25;9.77;;;;;;;;;;5054343;28;20033;-60
2023/01/24 06:06:09;;;;;;;14.38;9.10;;;;;;;;;;5054840;28;20106;-60
2023/01/24 06:08:35;;;;;;;13.23;9.27;;;;;;;;;;5055045;28;20356;-62
2023/01/24 06:11:05;;;;;;;13.10;9.07;;;;;;;;;;5045434;28;20091;-60
2023/01/24 06:13:33;;;;;;;13.75;9.07;;;;;;;;;;5046959;28;20465;-62
2023/01/24 06:16:06;;;;;;;15.32;10.07;;;;;;;;;;5050398;28;20052;-61
2023/01/24 06:18:32;;;;;;;13.40;9.57;;;;;;;;;;5054536;28;20303;-62
2023/01/24 06:20:59;;;;;;;15.38;9.90;;;;;;;;;;5053240;28;20051;-61
2023/01/24 06:23:27;;;;;;;12.70;8.70;;;;;;;;;;5052388;28;20037;-61
2023/01/24 06:25:53;;;;;;;14.93;9.35;;;;;;;;;;5052486;28;20069;-62
2023/01/24 06:28:19;;;;;;;13.75;9.50;;;;;;;;;;5053767;28;20036;-62
2023/01/24 06:30:59;;;;;;;13.82;9.48;;;;;;;;;;5051769;28;20086;-60
2023/01/24 06:33:32;;;;;;;15.85;9.10;;;;;;;;;;5050591;28;20041;-59
2023/01/24 06:36:01;;;;;;;12.87;8.67;;;;;;;;;;5054032;28;20053;-60
2023/01/24 06:38:36;;;;;;;13.35;9.13;;;;;;;;;;5053852;28;20519;-59
2023/01/24 06:41:03;;;;;;;;;;;;;;;;;;5052372;28;20052;-60
2023/01/24 06:43:30;;;;;;;12.65;8.32;;;;;;;;;;5051035;28;19964;-61
2023/01/24 06:45:58;;;;;;;14.68;8.70;;;;;;;;;;5065278;28;20338;-60
2023/01/24 06:48:25;;;;;;;13.38;9.15;;;;;;;;;;5070103;28;20051;-60
2023/01/24 06:50:52;;;;;;;14.80;9.55;;;;;;;;;;5067285;28;20068;-60
2023/01/24 06:53:19;;;;;;;14.45;9.18;;;;;;;;;;5066311;28;20052;-60
2023/01/24 06:55:46;;;;;;;13.38;8.98;;;;;;;;;;5066079;28;20036;-59
2023/01/24 06:58:13;;;;;;;14.95;10.27;;;;;;;;;;5068281;28;20029;-60
2023/01/24 07:00:39;;;;;;;13.85;9.32;;;;;;;;;;5063583;28;20067;-61
2023/01/24 07:03:06;;;;;;;13.10;9.32;;;;;;;;;;5068941;28;20033;-59
2023/01/24 07:05:32;;;;;;;14.30;9.52;;;;;;;;;;5080135;28;20072;-60
2023/01/24 07:07:58;;;;;;;13.55;9.48;;;;;;;;;;5082858;28;20044;-61
2023/01/24 07:10:24;;;;;;;14.27;9.20;;;;;;;;;;5081340;28;20071;-60
2023/01/24 07:12:50;;;;;;;13.40;9.77;;;;;;;;;;5082193;28;20510;-60
2023/01/24 07:15:16;;;;;;;13.27;9.10;;;;;;;;;;5081161;28;20044;-61
2023/01/24 07:17:42;;;;;;;16.13;10.63;;;;;;;;;;5083996;28;20119;-61
2023/01/24 07:20:09;;;;;;;14.25;10.10;;;;;;;;;;5080396;28;20033;-60
2023/01/24 07:22:37;;;;;;;15.13;10.23;;;;;;;;;;5067311;28;20371;-60
2023/01/24 07:25:04;;;;;;;14.52;9.63;;;;;;;;;;5082349;28;20110;-61
2023/01/24 07:27:30;;;;;;;13.93;9.60;;;;;;;;;;5078976;28;20436;-60
2023/01/24 07:29:56;;;;;;;15.63;9.95;;;;;;;;;;5080163;28;20335;-60
2023/01/24 07:32:22;;;;;;;14.88;10.50;;;;;;;;;;5081872;28;20119;-59
2023/01/24 07:34:55;;;;;;;13.70;9.73;;;;;;;;;;5080930;28;20128;-59
2023/01/24 07:37:22;;;;;;;17.10;10.45;;;;;;;;;;5080322;28;20044;-60
2023/01/24 07:39:49;;;;;;;17.40;10.63;;;;;;;;;;5084307;28;20091;-60
2023/01/24 07:42:15;;;;;;;14.75;9.77;;;;;;;;;;5081038;28;20106;-61
2023/01/24 07:44:40;;;;;;;13.95;9.57;;;;;;;;;;5080846;28;20044;-61
2023/01/24 07:47:06;;;;;;;15.60;10.63;;;;;;;;;;5082819;28;20438;-59
2023/01/24 07:49:32;;;;;;;14.18;10.05;;;;;;;;;;5082042;28;20072;-61
2023/01/24 07:51:58;;;;;;;13.75;9.55;;;;;;;;;;5077556;28;20040;-60
2023/01/24 07:54:24;;;;;;;13.65;9.30;;;;;;;;;;5083262;28;20435;-61
2023/01/24 07:56:51;;;;;;;14.30;9.82;;;;;;;;;;5080338;28;20040;-60
2023/01/24 07:59:17;;;;;;;14.85;9.40;;;;;;;;;;5080656;28;20043;-61
2023/01/24 08:01:43;;;;;;;14.40;9.98;;;;;;;;;;5063683;28;20047;-60
2023/01/24 08:04:09;;;;;;;15.15;10.43;;;;;;;;;;5078167;28;20126;-59
2023/01/24 08:06:35;;;;;;;14.85;10.45;;;;;;;;;;5081132;28;20313;-59
2023/01/24 08:09:02;;;;;;;14.13;10.65;;;;;;;;;;5083620;28;20036;-61
2023/01/24 08:11:28;;;;;;;15.45;10.40;;;;;;;;;;5079098;28;20478;-60
2023/01/24 08:13:54;;;;;;;16.33;10.48;;;;;;;;;;5082450;28;20055;-60
2023/01/24 08:16:23;;;;;;;14.75;10.32;;;;;;;;;;5082384;28;20040;-61
2023/01/24 08:18:49;;;;;;;16.50;11.57;;;;;;;;;;5077331;28;20044;-60
2023/01/24 08:21:15;;;;;;;17.45;10.52;;;;;;;;;;5079271;28;20129;-60
2023/01/24 08:23:41;;;;;;;16.27;10.55;;;;;;;;;;5083148;28;20473;-60
2023/01/24 08:26:07;;;;;;;14.68;10.30;;;;;;;;;;5079435;28;20098;-61
2023/01/24 08:28:33;;;;;;;15.60;10.05;;;;;;;;;;5082966;28;20028;-61
2023/01/24 08:30:59;;;;;;;15.02;10.43;;;;;;;;;;5080831;28;20036;-61
2023/01/24 08:33:25;;;;;;;15.90;10.82;;;;;;;;;;5079307;28;20051;-59
2023/01/24 08:35:52;;;;;;;14.25;9.95;;;;;;;;;;5080213;28;20075;-61
2023/01/24 08:38:18;;;;;;;14.15;10.55;;;;;;;;;;5082300;28;20045;-60
2023/01/24 08:40:44;;;;;;;15.50;10.38;;;;;;;;;;5079587;28;20120;-61
2023/01/24 08:43:10;;;;;;;15.30;10.23;;;;;;;;;;5077358;28;20442;-61
2023/01/24 08:45:36;;;;;;;13.75;10.20;;;;;;;;;;5080455;28;20421;-61
2023/01/24 08:48:02;;;;;;;14.77;9.95;;;;;;;;;;5079647;28;20101;-61
2023/01/24 08:50:28;;;;;;;14.93;10.73;;;;;;;;;;5079383;28;20036;-61
2023/01/24 08:52:55;;;;;;;13.57;9.73;;;;;;;;;;5081822;28;20115;-60
2023/01/24 08:55:21;;;;;;;14.43;10.73;;;;;;;;;;5082305;28;20559;-61
2023/01/24 08:57:47;;;;;;;14.98;10.40;;;;;;;;;;5080486;28;20040;-59
2023/01/24 09:00:14;;;;;;;16.00;11.18;;;;;;;;;;5078327;28;20068;-61
2023/01/24 09:02:40;;;;;;;15.27;10.55;;;;;;;;;;5079152;28;20037;-62
2023/01/24 09:05:06;;;;;;;16.13;10.75;;;;;;;;;;5082220;28;20115;-62
2023/01/24 09:07:34;;;;;;;14.07;10.02;;;;;;;;;;5080626;28;20064;-61
2023/01/24 09:10:00;;;;;;;14.07;10.45;;;;;;;;;;5079439;28;20048;-61
2023/01/24 09:12:26;;;;;;;16.05;10.00;;;;;;;;;;5083009;28;20032;-62
2023/01/24 09:14:52;;;;;;;14.93;9.95;;;;;;;;;;5080074;28;20033;-61
2023/01/24 09:17:17;;;;;;;18.60;11.07;;;;;;;;;;5081856;28;20036;-61
2023/01/24 09:19:43;;;;;;;15.85;10.38;;;;;;;;;;5081150;28;20127;-61
2023/01/24 09:22:09;;;;;;;14.70;10.95;;;;;;;;;;5076831;28;20131;-61
2023/01/24 09:24:35;;;;;;;14.65;10.63;;;;;;;;;;5081456;28;20436;-60
2023/01/24 09:27:01;;;;;;;14.73;10.27;;;;;;;;;;5081102;28;20040;-62
2023/01/24 09:29:27;;;;;;;17.20;10.85;;;;;;;;;;5077811;28;20064;-61
2023/01/24 09:31:54;;;;;;;16.15;10.50;;;;;;;;;;5081050;28;20479;-60
2023/01/24 09:34:21;;;;;;;14.70;10.80;;;;;;;;;;5080862;28;20059;-60
2023/01/24 09:36:56;;;;;;;14.90;10.15;;;;;;;;;;5077978;28;20681;-61
2023/01/24 09:39:22;;;;;;;15.05;10.00;;;;;;;;;;5080518;28;20101;-61
2023/01/24 09:42:04;;;;;;;15.38;10.88;;;;;;;;;;5079320;28;20147;-61
2023/01/24 09:44:50;;;;;;;14.77;10.32;;;;;;;;;;5075457;28;20438;-60
2023/01/24 09:47:18;;;;;;;16.13;10.93;;;;;;;;;;5093252;28;20119;-59
2023/01/24 09:49:54;;;;;;;15.63;10.68;;;;;;;;;;5080548;28;20147;-60
2023/01/24 09:52:27;;;;;;;17.02;10.95;;;;;;;;;;5079003;28;20064;-61
2023/01/24 09:54:58;;;;;;;14.43;10.55;;;;;;;;;;5079923;28;20093;-60
2023/01/24 09:57:30;;;;;;;13.68;10.30;;;;;;;;;;5083016;28;20115;-60
2023/01/24 10:00:03;;;;;;;15.50;10.98;;;;;;;;;;5083463;28;20036;-60
2023/01/24 10:02:29;;;;;;;15.52;10.63;;;;;;;;;;5078482;28;20025;-58
2023/01/24 10:04:55;;;;;;;14.15;10.95;;;;;;;;;;5084110;28;20746;-59
2023/01/24 10:07:28;;;;;;;13.65;9.07;;;;;;;;;;5083882;28;20048;-60
2023/01/24 10:10:19;;;;;;;15.43;10.88;;;;;;;;;;5081333;28;20127;-61
2023/01/24 10:13:04;;;;;;;16.83;11.73;;;;;;;;;;5082849;28;20499;-59
2023/01/24 10:15:37;;;;;;;13.43;10.30;;;;;;;;;;5081237;28;20130;-61
2023/01/24 10:18:03;;;;;;;15.38;9.63;;;;;;;;;;5083623;28;20468;-60
2023/01/24 10:20:30;;;;;;;14.98;10.98;;;;;;;;;;5079858;28;20028;-58
2023/01/24 10:23:28;;;;;;;17.45;11.48;;;;;;;;;;5084196;28;20024;-59
2023/01/24 10:25:54;;;;;;;14.73;10.13;;;;;;;;;;5027804;28;20044;-60
2023/01/24 10:28:34;;;;;;;15.38;10.02;;;;;;;;;;5082542;28;20067;-61
2023/01/24 10:31:32;;;;;;;15.13;10.88;;;;;;;;;;5080042;28;20451;-62
2023/01/24 10:34:00;;;;;;;14.55;10.63;;;;;;;;;;5027470;28;20421;-60
2023/01/24 10:36:33;;;;;;;17.02;11.07;;;;;;;;;;5082591;28;20372;-61
2023/01/24 10:38:59;;;;;;;15.18;10.25;;;;;;;;;;5082794;28;20056;-61
2023/01/24 10:41:26;;;;;;;16.10;10.80;;;;;;;;;;5079824;28;20112;-61
2023/01/24 10:44:09;;;;;;;15.55;10.63;;;;;;;;;;5083219;28;20036;-61
2023/01/24 10:46:54;;;;;;;14.90;10.65;;;;;;;;;;5081361;28;20040;-62
2023/01/24 10:49:24;;;;;;;14.90;10.80;;;;;;;;;;5081184;28;20417;-60
2023/01/24 10:52:08;;;;;;;15.85;11.40;;;;;;;;;;5078520;28;20036;-62
2023/01/24 10:54:41;;;;;;;16.67;12.00;;;;;;;;;;5079969;28;20043;-62
2023/01/24 10:57:15;;;;;;;16.02;10.55;;;;;;;;;;5084421;28;20359;-62
2023/01/24 10:59:41;;;;;;;15.20;11.35;;;;;;;;;;5065453;28;20093;-62
2023/01/24 11:02:19;;;;;;;16.73;12.20;;;;;;;;;;5080385;28;20032;-62
2023/01/24 11:04:45;;;;;;;16.20;11.32;;;;;;;;;;5081790;28;20040;-62
2023/01/24 11:07:26;;;;;;;16.88;11.30;;;;;;;;;;5081545;28;20036;-61
2023/01/24 11:09:52;;;;;;;15.23;11.50;;;;;;;;;;5079885;28;20046;-61
2023/01/24 11:12:20;;;;;;;14.55;10.85;;;;;;;;;;5081866;28;20037;-61
2023/01/24 11:14:48;;;;;;;15.38;10.68;;;;;;;;;;5080218;28;20025;-60
2023/01/24 11:17:35;;;;;;;14.65;10.75;;;;;;;;;;5081479;28;20051;-62
2023/01/24 11:20:09;;;;;;;12.90;10.18;;;;;;;;;;5080755;28;20046;-61
2023/01/24 11:22:36;;;;;;;15.38;11.15;;;;;;;;;;5081994;28;20099;-60
2023/01/24 11:25:05;;;;;;;14.18;10.20;;;;;;;;;;5082771;28;20028;-60
2023/01/24 11:27:31;;;;;;;13.10;9.38;;;;;;;;;;5079493;28;20041;-60
2023/01/24 11:30:06;;;;;;;14.85;10.32;;;;;;;;;;5081442;28;20036;-61
2023/01/24 11:32:35;;;;;;;14.30;10.55;;;;;;;;;;5081430;28;20135;-62
2023/01/24 11:35:17;;;;;;;16.08;10.48;;;;;;;;;;5081366;28;20049;-60
2023/01/24 11:37:50;;;;;;;14.43;10.85;;;;;;;;;;5081273;28;20361;-60
2023/01/24 11:40:23;;;;;;;15.18;11.07;;;;;;;;;;5078081;28;20554;-60
2023/01/24 11:42:55;;;;;;;14.68;10.65;;;;;;;;;;5081958;28;20037;-60
2023/01/24 11:45:50;;;;;;;14.60;10.57;;;;;;;;;;5080884;28;20084;-60
2023/01/24 11:48:16;;;;;;;;;;;;;;;;;;5053091;28;20421;-62
2023/01/24 11:50:42;;;;;;;14.93;10.18;;;;;;;;;;5079582;28;20396;-61
2023/01/24 11:53:20;;;;;;;12.73;9.60;;;;;;;;;;5083090;28;20047;-61
2023/01/24 11:55:53;;;;;;;15.38;9.93;;;;;;;;;;5082675;28;20048;-60
2023/01/24 11:58:43;;;;;;;13.52;9.52;;;;;;;;;;5082034;28;20032;-61
2023/01/24 12:01:23;;;;;;;14.88;9.88;;;;;;;;;;5076530;28;20040;-62
2023/01/24 12:03:49;;;;;;;14.40;9.57;;;;;;;;;;5082584;28;20857;-62
2023/01/24 12:06:32;;;;;;;12.35;9.05;;;;;;;;;;5082489;28;20095;-61
2023/01/24 12:09:07;;;;;;;13.63;9.68;;;;;;;;;;5081852;28;20043;-60
2023/01/24 12:11:52;;;;;;;12.55;8.52;;;;;;;;;;5077191;28;20356;-60
2023/01/24 12:14:37;;;;;;;12.80;9.35;;;;;;;;;;5081110;28;20036;-59
2023/01/24 12:17:10;;;;;;;13.82;10.38;;;;;;;;;;5082275;28;20036;-62
2023/01/24 12:19:51;;;;;;;13.73;9.95;;;;;;;;;;5079826;28;20083;-61
2023/01/24 12:22:19;;;;;;;12.73;10.10;;;;;;;;;;5077999;28;20048;-62
2023/01/24 12:24:48;;;;;;;13.77;9.95;;;;;;;;;;5081656;28;20032;-61
2023/01/24 12:27:19;;;;;;;13.93;10.15;;;;;;;;;;5080911;28;20044;-62
2023/01/24 12:29:51;;;;;;;15.35;10.52;;;;;;;;;;5062128;28;20051;-61
2023/01/24 12:32:17;;;;;;;12.77;9.27;;;;;;;;;;5079109;28;20049;-61
2023/01/24 12:34:51;;;;;;;14.48;10.10;;;;;;;;;;5080176;28;20043;-61
2023/01/24 12:37:24;;;;;;;14.82;10.20;;;;;;;;;;5050892;28;20037;-61
2023/01/24 12:40:04;;;;;;;13.95;9.77;;;;;;;;;;5050684;28;20055;-60
2023/01/24 12:42:48;;;;;;;14.23;9.95;;;;;;;;;;5051437;28;20037;-61
2023/01/24 12:45:19;;;;;;;14.98;9.88;;;;;;;;;;5050285;28;20055;-60
2023/01/24 12:47:48;;;;;;;12.98;9.65;;;;;;;;;;5052460;28;20029;-62
2023/01/24 12:50:19;;;;;;;14.02;10.13;;;;;;;;;;5051628;28;20112;-61
2023/01/24 12:52:50;;;;;;;13.73;10.18;;;;;;;;;;5051498;28;20552;-60
2023/01/24 12:55:19;;;;;;;13.55;9.55;;;;;;;;;;5051862;28;20468;-60
2023/01/24 12:57:56;;;;;;;14.43;9.70;;;;;;;;;;5052083;28;20456;-61
2023/01/24 13:00:24;;;;;;;15.93;10.15;;;;;;;;;;5050135;28;20044;-62
2023/01/24 13:02:49;;;;;;;14.52;10.82;;;;;;;;;;5048833;28;20033;-61
2023/01/24 13:05:15;;;;;;;13.98;10.40;;;;;;;;;;5052009;28;20037;-61
2023/01/24 13:07:47;;;;;;;12.48;10.18;;;;;;;;;;5052005;28;20044;-61
2023/01/24 13:10:17;;;;;;;15.38;11.18;;;;;;;;;;5050647;28;20112;-61
2023/01/24 13:12:45;;;;;;;16.17;10.65;;;;;;;;;;5050587;28;20435;-62
2023/01/24 13:15:19;;;;;;;15.80;11.80;;;;;;;;;;5051356;28;20065;-62
2023/01/24 13:17:55;;;;;;;15.27;11.52;;;;;;;;;;5051815;28;20091;-60
2023/01/24 13:20:28;;;;;;;15.07;11.68;;;;;;;;;;5032796;28;20055;-60
2023/01/24 13:23:13;;;;;;;15.65;10.82;;;;;;;;;;5049268;28;20041;-60
2023/01/24 13:25:45;;;;;;;19.23;14.77;;;;;;;;;;5050588;28;20040;-60
2023/01/24 13:28:17;;;;;;;16.98;13.18;;;;;;;;;;5052158;28;20036;-60
2023/01/24 13:30:47;;;;;;;16.33;11.90;;;;;;;;;;5053838;28;20412;-61
2023/01/24 13:33:19;;;;;;;16.05;11.93;;;;;;;;;;5053392;28;20037;-59
2023/01/24 13:35:53;;;;;;;12.95;10.20;;;;;;;;;;5065843;28;20048;-59
2023/01/24 13:38:27;;;;;;;14.88;10.90;;;;;;;;;;5086159;28;20067;-60
2023/01/24 13:41:02;;;;;;;13.07;9.35;;;;;;;;;;5078420;28;20057;-59
2023/01/24 13:43:37;;;;;;;13.65;10.25;;;;;;;;;;5083820;28;20368;-61
2023/01/24 13:46:04;;;;;;;13.60;10.40;;;;;;;;;;5082997;28;20039;-60
2023/01/24 13:48:42;;;;;;;13.82;10.70;;;;;;;;;;5079038;28;20050;-61
2023/01/24 13:51:19;;;;;;;14.13;10.95;;;;;;;;;;5083517;28;20077;-61
2023/01/24 13:53:58;;;;;;;14.57;10.82;;;;;;;;;;5085454;28;20048;-60
2023/01/24 13:56:24;;;;;;;14.38;10.57;;;;;;;;;;5084719;28;20105;-61
2023/01/24 13:58:52;;;;;;;13.05;10.45;;;;;;;;;;5082003;28;20146;-59
2023/01/24 14:01:18;;;;;;;13.35;10.73;;;;;;;;;;5081950;28;20051;-61
2023/01/24 14:03:53;;;;;;;13.38;10.45;;;;;;;;;;5084949;28;20111;-62
2023/01/24 14:06:19;;;;;;;;;;;;;;;;;;5085192;28;20174;-62
2023/01/24 14:08:47;;;;;;;12.30;9.73;;;;;;;;;;5083631;28;20359;-61
2023/01/24 14:11:18;;;;;;;12.68;9.50;;;;;;;;;;5081911;28;20040;-61
2023/01/24 14:13:47;;;;;;;11.60;9.15;;;;;;;;;;5085490;28;20119;-62
2023/01/24 14:16:33;;;;;;;13.60;9.93;;;;;;;;;;5083984;28;20037;-62
2023/01/24 14:19:14;;;;;;;14.23;9.15;;;;;;;;;;5082897;28;20075;-61
2023/01/24 14:21:49;;;;;;;12.80;9.65;;;;;;;;;;5081539;28;20440;-59
2023/01/24 14:24:33;;;;;;;11.23;8.75;;;;;;;;;;5081334;28;20460;-62
2023/01/24 14:27:02;;;;;;;14.80;10.68;;;;;;;;;;5084092;28;20152;-60
2023/01/24 14:29:38;;;;;;;12.02;9.30;;;;;;;;;;5081098;28;20424;-61
2023/01/24 14:32:17;;;;;;;13.30;9.52;;;;;;;;;;5081079;28;20052;-62
2023/01/24 14:34:49;;;;;;;13.57;10.50;;;;;;;;;;5082359;28;20484;-61
2023/01/24 14:37:17;;;;;;;14.45;10.48;;;;;;;;;;5079989;28;20062;-60
2023/01/24 14:39:43;;;;;;;19.55;12.20;;;;;;;;;;5083512;28;20032;-62
2023/01/24 14:42:13;;;;;;;14.65;11.38;;;;;;;;;;5077384;28;20165;-61
2023/01/24 14:44:41;;;;;;;14.73;11.23;;;;;;;;;;5081773;28;20032;-60
2023/01/24 14:47:17;;;;;;;15.75;11.05;;;;;;;;;;5084586;28;20431;-62
2023/01/24 14:49:44;;;;;;;13.07;10.32;;;;;;;;;;5083390;28;20097;-62
2023/01/24 14:52:27;;;;;;;13.52;11.30;;;;;;;;;;5077663;28;20040;-62
2023/01/24 14:54:54;;;;;;;13.90;11.15;;;;;;;;;;5081151;28;20047;-61
2023/01/24 14:57:21;;;;;;;12.88;10.07;;;;;;;;;;5082876;28;20119;-62
2023/01/24 14:59:58;;;;;;;15.43;11.45;;;;;;;;;;5083296;28;20032;-61
2023/01/24 15:02:24;;;;;;;13.15;10.18;;;;;;;;;;5080225;28;20040;-62
2023/01/24 15:04:50;;;;;;;13.00;10.20;;;;;;;;;;5082854;28;20101;-62
2023/01/24 15:07:16;;;;;;;12.95;10.65;;;;;;;;;;5085490;28;20040;-61
2023/01/24 15:09:42;;;;;;;14.48;11.15;;;;;;;;;;5081618;28;20036;-61